PWSweather.com
Personal Weather Stations
Station Observations
THAIWX
Pa Daet, Chiang MaiTH 50100

Pa DaetChiang MaiTH 50100

Lat: 18.766158, Lon: 98.97553

Elevation: 1007

Station Type: LaCrosse WS2315

http://www.ThaiWx.yolasite.com/

High Low Average
Temperature 95.9°F35.5°C 72.9°F22.7°C 83.6°F28.7°C
Dew Point 73.9°F23.3°C 67.9°F19.9°C 70.7°F21.5°C
Winds 3.6 mph 5.8 kmh Calm Calm Calm SSWCalm SSW
Wind Gusts 6.7 mph10.8 kmh -- 1.0 mph1.6 kmh
Humidity 85% 44% 67%
Pressure 30.11 in1019.6 mb 29.97 in1014.9 mb -
Precipitation 0.02 in0.5 mm - -
Hour Temp Dew Point Humidity Winds Wind Gusts Pressure Precip Precip Rate Daily Precip Total
12:06 AM 77.7°F25.4°C 70.7°F21.5°C 79% Calm Calm -- 30.07 in1018.3 mb 0.00 in0.0 mm 0.00 in0.0 mm 0.00 in0.0 mm
12:38 AM 77.4°F25.2°C 70.7°F21.5°C 80% Calm Calm -- 30.06 in1017.9 mb 0.00 in0.0 mm 0.00 in0.0 mm 0.00 in0.0 mm
01:08 AM 77.2°F25.1°C 70.9°F21.6°C 81% Calm Calm -- 30.05 in1017.6 mb 0.00 in0.0 mm 0.00 in0.0 mm 0.00 in0.0 mm
01:38 AM 76.8°F24.9°C 70.2°F21.2°C 80% Calm Calm -- 30.05 in1017.6 mb 0.00 in0.0 mm 0.00 in0.0 mm 0.00 in0.0 mm
02:08 AM 76.3°F24.6°C 70.0°F21.1°C 81% Calm Calm -- 30.04 in1017.3 mb 0.00 in0.0 mm 0.00 in0.0 mm 0.00 in0.0 mm
02:38 AM 75.9°F24.4°C 69.7°F20.9°C 81% Calm Calm -- 30.05 in1017.6 mb 0.00 in0.0 mm 0.00 in0.0 mm 0.00 in0.0 mm
03:08 AM 75.9°F24.4°C 69.7°F20.9°C 81% Calm Calm -- 30.04 in1017.3 mb 0.00 in0.0 mm 0.00 in0.0 mm 0.00 in0.0 mm
03:38 AM 75.0°F23.9°C 69.2°F20.7°C 82% Calm Calm -- 30.04 in1017.3 mb 0.00 in0.0 mm 0.00 in0.0 mm 0.00 in0.0 mm
04:08 AM 74.5°F23.6°C 69.4°F20.8°C 84% Calm Calm -- 30.04 in1017.3 mb 0.00 in0.0 mm 0.00 in0.0 mm 0.00 in0.0 mm
04:38 AM 73.9°F23.3°C 68.8°F20.4°C 84% Calm Calm -- 30.04 in1017.3 mb 0.00 in0.0 mm 0.00 in0.0 mm 0.00 in0.0 mm
05:08 AM 73.6°F23.1°C 68.8°F20.4°C 85% Calm Calm -- 30.05 in1017.6 mb 0.00 in0.0 mm 0.00 in0.0 mm 0.00 in0.0 mm
05:38 AM 73.2°F22.9°C 68.5°F20.3°C 85% Calm Calm -- 30.05 in1017.6 mb 0.00 in0.0 mm 0.00 in0.0 mm 0.00 in0.0 mm
06:08 AM 72.7°F22.6°C 67.9°F19.9°C 85% Calm Calm -- 30.06 in1017.9 mb 0.00 in0.0 mm 0.00 in0.0 mm 0.00 in0.0 mm
06:38 AM 72.5°F22.5°C 67.7°F19.8°C 85% Calm Calm -- 30.07 in1018.3 mb 0.00 in0.0 mm 0.00 in0.0 mm 0.00 in0.0 mm
07:08 AM 72.9°F22.7°C 68.1°F20.1°C 85% Calm Calm -- 30.08 in1018.6 mb 0.00 in0.0 mm 0.00 in0.0 mm 0.00 in0.0 mm
07:38 AM 73.9°F23.3°C 69.2°F20.7°C 85% 0.7 mph W1.1 kmh W 0.7 mph1.1 kmh 30.09 in1019.0 mb 0.00 in0.0 mm 0.00 in0.0 mm 0.00 in0.0 mm
08:08 AM 75.7°F24.3°C 70.2°F21.2°C 83% Calm Calm 1.3 mph2.1 kmh 30.10 in1019.3 mb 0.00 in0.0 mm 0.00 in0.0 mm 0.00 in0.0 mm
08:38 AM 77.9°F25.5°C 71.2°F21.8°C 80% Calm Calm 1.3 mph2.1 kmh 30.11 in1019.6 mb 0.00 in0.0 mm 0.00 in0.0 mm 0.00 in0.0 mm
09:08 AM 79.9°F26.6°C 72.0°F22.2°C 77% Calm Calm 1.1 mph1.8 kmh 30.11 in1019.6 mb 0.00 in0.0 mm 0.00 in0.0 mm 0.00 in0.0 mm
09:38 AM 82.8°F28.2°C 72.0°F22.2°C 70% Calm Calm -- 30.11 in1019.6 mb 0.00 in0.0 mm 0.00 in0.0 mm 0.00 in0.0 mm
10:08 AM 84.9°F29.4°C 72.3°F22.4°C 66% Calm Calm -- 30.10 in1019.3 mb 0.00 in0.0 mm 0.00 in0.0 mm 0.00 in0.0 mm
10:38 AM 87.3°F30.7°C 71.8°F22.1°C 60% Calm Calm 2.2 mph3.5 kmh 30.09 in1019.0 mb 0.00 in0.0 mm 0.00 in0.0 mm 0.00 in0.0 mm
11:08 AM 90.3°F32.4°C 71.3°F21.8°C 54% 1.1 mph ESE1.8 kmh ESE 1.1 mph1.8 kmh 30.08 in1018.6 mb 0.00 in0.0 mm 0.00 in0.0 mm 0.00 in0.0 mm
11:37 AM 93.4°F34.1°C 71.6°F22.0°C 49% Calm Calm 4.0 mph6.4 kmh 30.06 in1017.9 mb 0.00 in0.0 mm 0.00 in0.0 mm 0.00 in0.0 mm
12:08 PM 94.1°F34.5°C 70.7°F21.5°C 47% Calm Calm 2.9 mph4.7 kmh 30.04 in1017.3 mb 0.00 in0.0 mm 0.00 in0.0 mm 0.00 in0.0 mm
12:38 PM 95.5°F35.3°C 70.7°F21.5°C 45% 3.1 mph SE5.0 kmh SE 3.1 mph5.0 kmh 30.03 in1016.9 mb 0.00 in0.0 mm 0.00 in0.0 mm 0.00 in0.0 mm
01:07 PM 91.9°F33.3°C 69.3°F20.7°C 48% 0.9 mph S1.4 kmh S 2.0 mph3.2 kmh 30.02 in1016.6 mb 0.00 in0.0 mm 0.00 in0.0 mm 0.00 in0.0 mm
01:40 PM 94.3°F34.6°C 71.5°F21.9°C 48% Calm Calm -- 30.00 in1015.9 mb 0.00 in0.0 mm 0.00 in0.0 mm 0.00 in0.0 mm
02:09 PM 95.9°F35.5°C 70.4°F21.3°C 44% Calm Calm 2.0 mph3.2 kmh 29.99 in1015.6 mb 0.00 in0.0 mm 0.00 in0.0 mm 0.00 in0.0 mm
02:39 PM 93.0°F33.9°C 69.0°F20.6°C 46% Calm Calm 1.8 mph2.9 kmh 29.98 in1015.2 mb 0.00 in0.0 mm 0.00 in0.0 mm 0.00 in0.0 mm
03:09 PM 90.1°F32.3°C 69.6°F20.9°C 51% Calm Calm -- 29.97 in1014.9 mb 0.00 in0.0 mm 0.00 in0.0 mm 0.00 in0.0 mm
03:39 PM 91.2°F32.9°C 69.3°F20.7°C 49% 3.1 mph SE5.0 kmh SE 3.1 mph5.0 kmh 29.97 in1014.9 mb 0.00 in0.0 mm 0.00 in0.0 mm 0.00 in0.0 mm
04:09 PM 90.3°F32.4°C 67.9°F19.9°C 48% Calm Calm 6.7 mph10.8 kmh 29.97 in1014.9 mb 0.00 in0.0 mm 0.00 in0.0 mm 0.00 in0.0 mm
04:39 PM 90.3°F32.4°C 68.5°F20.3°C 49% 3.6 mph SE5.8 kmh SE 3.6 mph5.8 kmh 29.98 in1015.2 mb 0.00 in0.0 mm 0.00 in0.0 mm 0.00 in0.0 mm
05:09 PM 83.5°F28.6°C 73.9°F23.3°C 73% Calm Calm -- 29.98 in1015.2 mb 0.02 in0.5 mm 0.04 in1.0 mm 0.02 in0.5 mm
05:39 PM 81.9°F27.7°C 73.6°F23.1°C 76% Calm Calm -- 29.98 in1015.2 mb 0.02 in0.5 mm 0.00 in0.0 mm 0.02 in0.5 mm
06:09 PM 80.2°F26.8°C 73.6°F23.1°C 80% Calm Calm -- 30.00 in1015.9 mb 0.00 in0.0 mm 0.00 in0.0 mm 0.02 in0.5 mm
06:39 PM 79.2°F26.2°C 72.5°F22.5°C 80% Calm Calm -- 30.00 in1015.9 mb 0.00 in0.0 mm 0.00 in0.0 mm 0.02 in0.5 mm
07:09 PM 78.6°F25.9°C 71.2°F21.8°C 78% Calm Calm -- 30.01 in1016.3 mb 0.00 in0.0 mm 0.00 in0.0 mm 0.02 in0.5 mm
07:39 PM 78.6°F25.9°C 70.4°F21.3°C 76% Calm Calm -- 30.03 in1016.9 mb 0.00 in0.0 mm 0.00 in0.0 mm 0.02 in0.5 mm
08:09 PM 77.9°F25.5°C 70.5°F21.4°C 79% Calm Calm -- 30.04 in1017.3 mb 0.00 in0.0 mm 0.00 in0.0 mm 0.02 in0.5 mm
08:40 PM 77.4°F25.2°C 71.1°F21.7°C 81% Calm Calm -- 30.05 in1017.6 mb 0.00 in0.0 mm 0.00 in0.0 mm 0.02 in0.5 mm
09:11 PM 77.2°F25.1°C 71.2°F21.8°C 82% Calm Calm -- 30.06 in1017.9 mb 0.00 in0.0 mm 0.00 in0.0 mm 0.02 in0.5 mm
09:41 PM 77.0°F25.0°C 70.3°F21.3°C 80% Calm Calm -- 30.06 in1017.9 mb 0.00 in0.0 mm 0.00 in0.0 mm 0.02 in0.5 mm
10:11 PM 76.8°F24.9°C 70.2°F21.2°C 80% Calm Calm -- 30.07 in1018.3 mb 0.00 in0.0 mm 0.00 in0.0 mm 0.02 in0.5 mm
10:41 PM 76.6°F24.8°C 70.0°F21.1°C 80% Calm Calm -- 30.07 in1018.3 mb 0.00 in0.0 mm 0.00 in0.0 mm 0.02 in0.5 mm
11:11 PM 76.1°F24.5°C 69.1°F20.6°C 79% Calm Calm -- 30.07 in1018.3 mb 0.00 in0.0 mm 0.00 in0.0 mm 0.02 in0.5 mm
11:41 PM 76.1°F24.5°C 69.5°F20.8°C 80% Calm Calm -- 30.07 in1018.3 mb 0.00 in0.0 mm 0.00 in0.0 mm 0.02 in0.5 mm